createdAt,value
2023-10-31T00:00:44.139Z,4.05
2023-10-31T00:03:12.338Z,4.32
2023-10-31T00:05:39.091Z,4.22
2023-10-31T00:08:06.155Z,4.75
2023-10-31T00:10:32.752Z,4.55
2023-10-31T00:12:59.348Z,5.18
2023-10-31T00:15:26.076Z,4.70
2023-10-31T00:17:52.933Z,4.80
2023-10-31T00:20:19.562Z,5.50
2023-10-31T00:22:46.128Z,4.82
2023-10-31T00:25:12.751Z,5.57
2023-10-31T00:27:39.494Z,5.35
2023-10-31T00:30:07.247Z,6.28
2023-10-31T00:32:33.925Z,6.40
2023-10-31T00:35:00.796Z,6.45
2023-10-31T00:37:27.500Z,6.43
2023-10-31T00:39:54.132Z,6.38
2023-10-31T00:42:20.736Z,6.10
2023-10-31T00:44:47.331Z,6.05
2023-10-31T00:47:14.017Z,6.07
2023-10-31T00:49:40.589Z,6.43
2023-10-31T00:52:07.180Z,6.35
2023-10-31T00:54:33.786Z,6.30
2023-10-31T00:57:00.718Z,6.80
2023-10-31T00:59:27.397Z,7.70
2023-10-31T01:01:54.067Z,7.40
2023-10-31T01:04:20.731Z,6.78
2023-10-31T01:06:48.000Z,7.38
2023-10-31T01:09:14.581Z,7.22
2023-10-31T01:11:41.290Z,6.63
2023-10-31T01:14:08.030Z,6.28
2023-10-31T01:16:34.730Z,6.43
2023-10-31T01:19:01.491Z,6.50
2023-10-31T01:21:28.416Z,5.95
2023-10-31T01:23:55.072Z,5.30
2023-10-31T01:26:21.710Z,5.30
2023-10-31T01:28:48.336Z,5.88
2023-10-31T01:31:14.950Z,5.63
2023-10-31T01:33:41.750Z,5.70
2023-10-31T01:36:08.633Z,5.10
2023-10-31T01:38:35.377Z,5.75
2023-10-31T01:41:02.116Z,5.28
2023-10-31T01:43:37.174Z,5.97
2023-10-31T01:46:04.594Z,6.18
2023-10-31T01:48:33.228Z,6.90
2023-10-31T01:51:04.227Z,7.78
2023-10-31T01:53:34.777Z,11.45
2023-10-31T01:56:04.889Z,11.27
2023-10-31T01:58:37.212Z,12.30
2023-10-31T02:01:05.722Z,11.77
2023-10-31T02:03:34.394Z,10.52
2023-10-31T02:06:01.465Z,7.97
2023-10-31T02:08:28.156Z,7.60
2023-10-31T02:10:54.840Z,7.18
2023-10-31T02:13:21.528Z,5.50
2023-10-31T02:15:48.605Z,3.90
2023-10-31T02:18:15.688Z,3.22
2023-10-31T02:20:42.735Z,3.47
2023-10-31T02:23:09.595Z,2.72
2023-10-31T02:25:36.295Z,3.45
2023-10-31T02:28:02.935Z,2.92
2023-10-31T02:30:29.606Z,2.63
2023-10-31T02:32:56.374Z,2.60
2023-10-31T02:35:23.104Z,2.50
2023-10-31T02:37:50.388Z,1.95
2023-10-31T02:40:17.198Z,1.73
2023-10-31T02:42:43.912Z,1.70
2023-10-31T02:45:12.637Z,1.75
2023-10-31T02:47:39.624Z,1.50
2023-10-31T02:50:07.505Z,1.52
2023-10-31T02:52:34.202Z,1.30
2023-10-31T02:55:00.845Z,1.50
2023-10-31T02:57:27.415Z,1.20
2023-10-31T02:59:54.172Z,1.00
2023-10-31T03:02:21.069Z,0.93
2023-10-31T03:04:49.073Z,0.80
2023-10-31T03:07:15.748Z,0.82
2023-10-31T03:09:42.723Z,0.75
2023-10-31T03:12:09.384Z,0.60
2023-10-31T03:14:36.238Z,0.60
2023-10-31T03:17:02.881Z,0.73
2023-10-31T03:19:30.064Z,0.68
2023-10-31T03:21:56.669Z,0.70
2023-10-31T03:24:23.332Z,0.70
2023-10-31T03:26:49.964Z,0.50
2023-10-31T03:29:16.652Z,0.60
2023-10-31T03:31:43.270Z,0.50
2023-10-31T03:34:09.861Z,0.63
2023-10-31T03:36:36.497Z,0.60
2023-10-31T03:39:03.429Z,0.57
2023-10-31T03:41:30.179Z,0.68
2023-10-31T03:43:56.888Z,0.50
2023-10-31T03:46:23.632Z,0.65
2023-10-31T03:48:50.337Z,0.50
2023-10-31T03:51:23.244Z,1.00
2023-10-31T03:53:49.881Z,1.10
2023-10-31T03:56:17.082Z,1.30
2023-10-31T03:58:44.254Z,1.50
2023-10-31T04:01:10.926Z,1.88
2023-10-31T04:03:37.577Z,1.80
2023-10-31T04:06:07.402Z,1.90
2023-10-31T04:08:34.459Z,2.10
2023-10-31T04:11:01.115Z,2.10
2023-10-31T04:13:27.761Z,2.13
2023-10-31T04:15:54.362Z,2.50
2023-10-31T04:18:21.087Z,2.55
2023-10-31T04:20:48.486Z,3.05
2023-10-31T04:23:15.425Z,3.20
2023-10-31T04:25:42.694Z,3.13
2023-10-31T04:28:09.367Z,3.53
2023-10-31T04:30:35.992Z,3.83
2023-10-31T04:33:02.596Z,4.15
2023-10-31T04:35:29.403Z,5.13
2023-10-31T04:37:56.072Z,5.00
2023-10-31T04:40:22.652Z,4.75
2023-10-31T04:42:49.367Z,5.38
2023-10-31T04:45:16.148Z,6.32
2023-10-31T04:47:43.388Z,7.43
2023-10-31T04:50:13.345Z,6.93
2023-10-31T04:52:40.032Z,7.80
2023-10-31T04:55:06.984Z,8.35
2023-10-31T04:57:33.592Z,8.93
2023-10-31T05:00:00.561Z,8.90
2023-10-31T05:02:27.273Z,9.73
2023-10-31T05:04:54.212Z,9.50
2023-10-31T05:07:21.213Z,9.50
2023-10-31T05:09:47.839Z,10.07
2023-10-31T05:12:14.467Z,9.95
2023-10-31T05:14:41.559Z,11.30
2023-10-31T05:17:08.392Z,11.10
2023-10-31T05:19:34.992Z,11.93
2023-10-31T05:22:01.626Z,11.48
2023-10-31T05:24:28.259Z,12.55
2023-10-31T05:26:54.837Z,12.55
2023-10-31T05:29:47.175Z,11.98
2023-10-31T05:32:13.848Z,13.70
2023-10-31T05:34:40.434Z,13.90
2023-10-31T05:37:07.250Z,13.65
2023-10-31T05:39:34.057Z,14.43
2023-10-31T05:42:00.609Z,13.57
2023-10-31T05:44:27.206Z,14.65
2023-10-31T05:46:53.786Z,13.95
2023-10-31T05:49:20.585Z,14.13
2023-10-31T05:51:53.673Z,14.43
2023-10-31T05:54:20.538Z,14.45
2023-10-31T05:56:48.026Z,14.68
2023-10-31T05:59:14.673Z,16.17
2023-10-31T06:01:41.301Z,15.10
2023-10-31T06:04:08.497Z,16.23
2023-10-31T06:06:38.661Z,15.63
2023-10-31T06:09:05.700Z,15.75
2023-10-31T06:11:32.819Z,16.25
2023-10-31T06:14:00.585Z,16.00
2023-10-31T06:16:27.253Z,17.33
2023-10-31T06:18:53.902Z,15.98
2023-10-31T06:21:20.567Z,16.30
2023-10-31T06:23:47.326Z,15.88
2023-10-31T06:26:14.371Z,16.02
2023-10-31T06:28:45.558Z,14.50
2023-10-31T06:31:19.368Z,15.25
2023-10-31T06:33:46.011Z,15.10
2023-10-31T06:36:12.673Z,14.95
2023-10-31T06:38:39.250Z,15.32
2023-10-31T06:41:06.000Z,14.38
2023-10-31T06:43:35.021Z,15.63
2023-10-31T06:46:04.263Z,15.57
2023-10-31T06:48:31.036Z,15.20
2023-10-31T06:51:00.574Z,15.00
2023-10-31T06:55:53.867Z,13.23
2023-10-31T06:58:20.450Z,13.30
2023-10-31T07:00:47.049Z,14.20
2023-10-31T07:03:16.856Z,13.57
2023-10-31T07:05:43.790Z,13.82
2023-10-31T07:08:10.834Z,13.80
2023-10-31T07:10:37.449Z,9.75
2023-10-31T07:13:04.424Z,8.07
2023-10-31T07:15:31.035Z,7.72
2023-10-31T07:17:57.710Z,8.15
2023-10-31T07:20:24.418Z,7.88
2023-10-31T07:22:51.476Z,7.03
2023-10-31T07:25:18.170Z,6.32
2023-10-31T07:27:44.747Z,6.25
2023-10-31T07:30:13.854Z,6.38
2023-10-31T07:32:40.874Z,6.63
2023-10-31T07:35:09.866Z,5.45
2023-10-31T07:37:37.689Z,5.90
2023-10-31T07:40:05.339Z,5.35
2023-10-31T07:42:32.214Z,4.80
2023-10-31T07:44:58.917Z,5.15
2023-10-31T07:47:25.619Z,5.05
2023-10-31T07:49:52.315Z,4.47
2023-10-31T07:52:19.138Z,4.10
2023-10-31T07:54:45.763Z,3.90
2023-10-31T07:57:12.360Z,3.65
2023-10-31T07:59:39.256Z,4.07
2023-10-31T08:02:06.499Z,3.80
2023-10-31T08:04:33.441Z,4.43
2023-10-31T08:07:00.147Z,3.80
2023-10-31T08:09:26.822Z,4.40
2023-10-31T08:11:53.837Z,4.43
2023-10-31T08:14:20.902Z,4.13
2023-10-31T08:16:47.781Z,4.50
2023-10-31T08:19:15.549Z,5.30
2023-10-31T08:21:42.169Z,5.22
2023-10-31T08:24:09.235Z,6.00
2023-10-31T08:26:35.885Z,4.68
2023-10-31T08:29:02.577Z,4.72
2023-10-31T08:31:29.376Z,4.20
2023-10-31T08:33:55.959Z,4.35
2023-10-31T08:36:22.690Z,4.32
2023-10-31T08:38:50.350Z,4.40
2023-10-31T08:41:20.853Z,4.10
2023-10-31T08:43:48.081Z,3.80
2023-10-31T08:46:14.843Z,4.20
2023-10-31T08:48:41.514Z,3.70
2023-10-31T08:51:08.182Z,3.92
2023-10-31T08:53:34.916Z,4.28
2023-10-31T08:56:01.516Z,3.95
2023-10-31T08:58:29.852Z,4.07
2023-10-31T09:00:56.595Z,4.85
2023-10-31T09:03:23.235Z,6.60
2023-10-31T09:05:50.006Z,5.90
2023-10-31T09:08:16.867Z,6.15
2023-10-31T09:10:46.989Z,6.30
2023-10-31T09:13:14.437Z,6.60
2023-10-31T09:15:42.279Z,6.95
2023-10-31T09:18:09.040Z,6.88
2023-10-31T09:20:36.242Z,7.13
2023-10-31T09:23:02.989Z,8.18
2023-10-31T09:25:31.305Z,8.70
2023-10-31T09:28:00.017Z,8.50
2023-10-31T09:30:27.231Z,8.73
2023-10-31T09:32:54.536Z,9.27
2023-10-31T09:35:21.370Z,10.02
2023-10-31T09:37:50.111Z,10.15
2023-10-31T09:40:17.420Z,10.27
2023-10-31T09:42:47.824Z,10.95
2023-10-31T09:45:15.871Z,11.60
2023-10-31T09:47:45.819Z,11.50
2023-10-31T09:50:12.618Z,12.10
2023-10-31T09:52:40.183Z,12.18
2023-10-31T09:55:07.827Z,11.40
2023-10-31T09:57:34.898Z,12.98
2023-10-31T10:00:01.513Z,13.30
2023-10-31T10:02:36.622Z,13.20
2023-10-31T10:05:03.561Z,13.40
2023-10-31T10:07:31.554Z,13.13
2023-10-31T10:09:58.200Z,13.73
2023-10-31T10:12:24.766Z,13.68
2023-10-31T10:14:51.379Z,14.32
2023-10-31T10:17:23.427Z,13.60
2023-10-31T10:20:09.718Z,14.00
2023-10-31T10:22:40.933Z,12.90
2023-10-31T10:25:09.545Z,12.88
2023-10-31T10:27:37.231Z,12.52
2023-10-31T10:30:05.502Z,12.38
2023-10-31T10:32:32.390Z,12.68
2023-10-31T10:34:59.274Z,12.00
2023-10-31T10:37:28.233Z,12.45
2023-10-31T10:39:57.667Z,12.48
2023-10-31T10:42:36.199Z,12.68
2023-10-31T10:45:05.024Z,11.50
2023-10-31T10:47:34.137Z,12.90
2023-10-31T10:50:02.407Z,12.50
2023-10-31T10:52:36.888Z,12.63
2023-10-31T10:55:14.082Z,14.30
2023-10-31T10:57:55.441Z,13.82
2023-10-31T11:00:25.759Z,12.73
2023-10-31T11:02:54.184Z,12.75
2023-10-31T11:05:21.783Z,13.23
2023-10-31T11:07:48.723Z,14.07
2023-10-31T11:10:15.778Z,13.70
2023-10-31T11:12:43.258Z,13.20
2023-10-31T11:15:13.755Z,12.88
2023-10-31T11:17:42.987Z,12.57
2023-10-31T11:20:15.982Z,12.20
2023-10-31T11:22:45.322Z,12.25
2023-10-31T11:25:25.741Z,13.68
2023-10-31T11:28:11.402Z,12.93
2023-10-31T11:30:38.232Z,13.20
2023-10-31T11:33:06.640Z,13.40
2023-10-31T11:35:39.624Z,13.10
2023-10-31T11:38:11.949Z,12.80
2023-10-31T11:41:00.761Z,12.13
2023-10-31T11:43:37.276Z,12.90
2023-10-31T11:46:04.410Z,12.00
2023-10-31T11:48:48.646Z,11.95
2023-10-31T11:51:15.222Z,11.85
2023-10-31T11:53:41.962Z,11.15
2023-10-31T11:56:19.371Z,11.32
2023-10-31T11:58:46.181Z,10.82
2023-10-31T12:01:12.838Z,10.77
2023-10-31T12:03:43.929Z,11.32
2023-10-31T12:06:11.423Z,10.13
2023-10-31T12:08:40.452Z,11.30
2023-10-31T12:11:11.114Z,10.43
2023-10-31T12:13:40.817Z,11.30
2023-10-31T12:16:09.702Z,10.57
2023-10-31T12:18:36.975Z,10.20
2023-10-31T12:21:04.278Z,11.68
2023-10-31T12:23:31.384Z,11.73
2023-10-31T12:25:58.862Z,11.50
2023-10-31T12:28:27.168Z,10.90
2023-10-31T12:30:59.188Z,11.48
2023-10-31T12:33:29.461Z,11.10
2023-10-31T12:36:01.192Z,11.38
2023-10-31T12:38:29.579Z,11.45
2023-10-31T12:40:58.307Z,11.55
2023-10-31T12:43:26.580Z,11.55
2023-10-31T12:45:53.733Z,11.43
2023-10-31T12:48:25.322Z,11.70
2023-10-31T12:51:08.538Z,11.88
2023-10-31T12:53:35.964Z,11.48
2023-10-31T12:56:04.098Z,10.55
2023-10-31T12:58:48.020Z,11.32
2023-10-31T13:01:14.668Z,11.30
2023-10-31T13:03:51.093Z,12.27
2023-10-31T13:06:18.223Z,12.23
2023-10-31T13:08:47.254Z,12.23
2023-10-31T13:11:15.297Z,13.25
2023-10-31T13:13:41.920Z,12.85
2023-10-31T13:16:08.746Z,12.82
2023-10-31T13:18:36.452Z,13.20
2023-10-31T13:21:03.305Z,14.48
2023-10-31T13:23:29.976Z,13.98
2023-10-31T13:25:56.617Z,13.15
2023-10-31T13:28:23.199Z,14.40
2023-10-31T13:30:49.965Z,14.20
2023-10-31T13:33:17.210Z,13.45
2023-10-31T13:35:43.998Z,14.55
2023-10-31T13:38:10.738Z,14.40
2023-10-31T13:40:37.483Z,14.60
2023-10-31T13:43:06.049Z,14.48
2023-10-31T13:45:32.697Z,14.23
2023-10-31T13:47:59.332Z,13.98
2023-10-31T13:50:26.406Z,15.25
2023-10-31T13:52:53.789Z,14.57
2023-10-31T13:55:20.384Z,15.23
2023-10-31T13:57:46.943Z,15.40
2023-10-31T14:00:14.577Z,15.30
2023-10-31T14:02:41.852Z,16.00
2023-10-31T14:05:09.355Z,16.30
2023-10-31T14:07:36.917Z,16.17
2023-10-31T14:10:03.918Z,15.40
2023-10-31T14:12:30.551Z,14.75
2023-10-31T14:14:57.281Z,15.13
2023-10-31T14:17:24.431Z,15.30
2023-10-31T14:19:51.170Z,15.65
2023-10-31T14:22:17.779Z,14.77
2023-10-31T14:24:44.440Z,14.48
2023-10-31T14:27:11.398Z,14.18
2023-10-31T14:29:38.477Z,15.10
2023-10-31T14:32:09.774Z,14.05
2023-10-31T14:34:36.769Z,13.70
2023-10-31T14:37:03.989Z,13.07
2023-10-31T14:39:30.826Z,13.13
2023-10-31T14:41:57.501Z,12.07
2023-10-31T14:44:24.210Z,12.70
2023-10-31T14:46:51.223Z,12.02
2023-10-31T14:49:17.832Z,11.82
2023-10-31T14:51:44.507Z,11.27
2023-10-31T14:54:11.197Z,11.40
2023-10-31T14:56:38.794Z,10.95
2023-10-31T14:59:05.573Z,10.65
2023-10-31T15:01:32.377Z,9.82
2023-10-31T15:03:59.051Z,9.45
2023-10-31T15:06:25.855Z,8.68
2023-10-31T15:08:52.451Z,8.32
2023-10-31T15:11:19.259Z,8.68
2023-10-31T15:14:13.652Z,7.18
2023-10-31T15:16:40.357Z,7.25
2023-10-31T15:19:32.531Z,7.35
2023-10-31T15:21:59.165Z,6.75
2023-10-31T15:24:25.783Z,6.82
2023-10-31T15:26:52.543Z,6.20
2023-10-31T15:29:20.028Z,5.88
2023-10-31T15:32:12.238Z,5.22
2023-10-31T15:34:42.845Z,4.70
2023-10-31T15:37:11.936Z,5.57
2023-10-31T15:39:43.317Z,5.53
2023-10-31T15:42:10.603Z,4.70
2023-10-31T15:44:40.691Z,5.32
2023-10-31T15:47:08.328Z,4.72
2023-10-31T15:49:36.818Z,4.97
2023-10-31T15:52:03.851Z,5.18
2023-10-31T15:54:30.460Z,5.10
2023-10-31T15:56:57.149Z,5.70
2023-10-31T15:59:23.816Z,4.88
2023-10-31T16:01:50.953Z,5.03
2023-10-31T16:04:18.972Z,4.82
2023-10-31T16:06:45.581Z,4.75
2023-10-31T16:09:12.180Z,4.57
2023-10-31T16:11:38.790Z,4.82
2023-10-31T16:14:05.418Z,4.82
2023-10-31T16:16:32.282Z,4.82
2023-10-31T16:18:59.076Z,5.47
2023-10-31T16:21:25.749Z,5.45
2023-10-31T16:23:52.392Z,5.25
2023-10-31T16:26:20.618Z,5.10
2023-10-31T16:28:47.549Z,5.32
2023-10-31T16:31:15.054Z,4.95
2023-10-31T16:33:50.677Z,4.80
2023-10-31T16:36:19.831Z,4.85
2023-10-31T16:38:47.106Z,4.63
2023-10-31T16:41:14.575Z,6.80
2023-10-31T16:43:41.794Z,5.97
2023-10-31T16:46:08.782Z,5.72
2023-10-31T16:48:35.494Z,5.55
2023-10-31T16:51:02.208Z,5.78
2023-10-31T16:53:29.388Z,5.85
2023-10-31T16:55:56.206Z,5.68
2023-10-31T16:58:22.806Z,5.68
2023-10-31T17:00:49.484Z,6.13
2023-10-31T17:03:16.684Z,6.28
2023-10-31T17:05:43.351Z,9.13
2023-10-31T17:08:10.047Z,7.07
2023-10-31T17:10:36.643Z,6.95
2023-10-31T17:13:04.706Z,8.70
2023-10-31T17:15:31.449Z,6.72
2023-10-31T17:17:58.170Z,6.97
2023-10-31T17:20:25.636Z,7.03
2023-10-31T17:22:52.696Z,8.27
2023-10-31T17:25:19.255Z,7.05
2023-10-31T17:27:45.877Z,6.20
2023-10-31T17:30:16.060Z,5.95
2023-10-31T17:32:44.849Z,7.53
2023-10-31T17:35:11.686Z,6.40
2023-10-31T17:37:38.523Z,7.43
2023-10-31T17:40:05.722Z,7.20
2023-10-31T17:42:35.549Z,7.00
2023-10-31T17:45:02.582Z,7.15
2023-10-31T17:47:29.257Z,7.72
2023-10-31T17:49:55.888Z,7.72
2023-10-31T17:52:24.861Z,8.98
2023-10-31T17:54:51.534Z,8.45
2023-10-31T17:57:19.907Z,8.50
2023-10-31T17:59:47.333Z,8.33
2023-10-31T18:02:14.423Z,7.80
2023-10-31T18:04:41.224Z,8.43
2023-10-31T18:07:07.964Z,9.85
2023-10-31T18:09:34.647Z,9.65
2023-10-31T18:12:01.408Z,11.95
2023-10-31T18:14:28.050Z,10.68
2023-10-31T18:16:54.713Z,9.35
2023-10-31T18:19:21.381Z,8.88
2023-10-31T18:21:47.943Z,9.68
2023-10-31T18:24:14.584Z,8.93
2023-10-31T18:26:41.815Z,9.57
2023-10-31T18:29:08.488Z,10.30
2023-10-31T18:31:35.174Z,9.20
2023-10-31T18:34:03.722Z,9.82
2023-10-31T18:36:38.657Z,11.20
2023-10-31T18:39:06.542Z,10.45
2023-10-31T18:41:36.106Z,15.95
2023-10-31T18:44:19.113Z,18.73
2023-10-31T18:46:52.176Z,15.52
2023-10-31T18:49:18.709Z,19.00
2023-10-31T18:51:46.033Z,19.85
2023-10-31T18:54:12.627Z,18.95
2023-10-31T18:56:39.513Z,21.08
2023-10-31T18:59:06.971Z,18.50
2023-10-31T19:01:34.004Z,16.17
2023-10-31T19:04:01.103Z,18.17
2023-10-31T19:06:27.977Z,17.35
2023-10-31T19:08:54.583Z,18.63
2023-10-31T19:11:21.284Z,16.38
2023-10-31T19:13:48.517Z,16.42
2023-10-31T19:16:15.310Z,16.20
2023-10-31T19:18:41.955Z,16.25
2023-10-31T19:21:08.621Z,16.60
2023-10-31T19:23:35.823Z,16.15
2023-10-31T19:26:03.369Z,17.10
2023-10-31T19:28:32.734Z,16.08
2023-10-31T19:31:08.324Z,17.40
2023-10-31T19:33:34.904Z,16.75
2023-10-31T19:36:01.592Z,18.02
2023-10-31T19:38:29.940Z,18.73
2023-10-31T19:40:56.597Z,16.45
2023-10-31T19:43:23.995Z,16.65
2023-10-31T19:45:51.573Z,17.73
2023-10-31T19:48:19.404Z,18.10
2023-10-31T19:50:46.250Z,17.92
2023-10-31T19:53:13.425Z,18.77
2023-10-31T19:55:40.032Z,18.10
2023-10-31T19:58:06.626Z,17.33
2023-10-31T20:00:33.165Z,17.27
2023-10-31T20:02:59.912Z,16.75
2023-10-31T20:05:26.604Z,18.50
2023-10-31T20:07:53.200Z,17.67
2023-10-31T20:10:19.864Z,19.27
2023-10-31T20:12:46.942Z,17.80
2023-10-31T20:15:14.209Z,17.75
2023-10-31T20:17:41.048Z,17.90
2023-10-31T20:20:09.818Z,17.67
2023-10-31T20:22:36.507Z,18.52
2023-10-31T20:25:03.145Z,16.83
2023-10-31T20:27:29.829Z,17.10
2023-10-31T20:29:56.439Z,19.27
2023-10-31T20:32:23.058Z,18.15
2023-10-31T20:34:49.784Z,18.65
2023-10-31T20:37:16.407Z,19.13
2023-10-31T20:39:44.374Z,17.95
2023-10-31T20:42:11.121Z,17.13
2023-10-31T20:44:37.887Z,16.55
2023-10-31T20:47:05.171Z,17.90
2023-10-31T20:49:31.962Z,15.82
2023-10-31T20:51:58.736Z,16.10
2023-10-31T20:54:25.312Z,16.00
2023-10-31T20:56:57.171Z,15.45
2023-10-31T20:59:23.831Z,16.85
2023-10-31T21:01:50.560Z,15.85
2023-10-31T21:04:17.221Z,16.98
2023-10-31T21:06:44.015Z,19.70
2023-10-31T21:09:10.726Z,19.02
2023-10-31T21:11:37.413Z,18.42
2023-10-31T21:14:05.815Z,19.60
2023-10-31T21:16:32.576Z,18.58
2023-10-31T21:18:59.583Z,18.35
2023-10-31T21:21:26.284Z,18.55
2023-10-31T21:23:54.214Z,17.60
2023-10-31T21:26:21.600Z,18.65
2023-10-31T21:28:48.428Z,20.20
2023-10-31T21:31:15.401Z,19.58
2023-10-31T21:33:45.100Z,19.15
2023-10-31T21:36:12.245Z,19.60
2023-10-31T21:38:41.879Z,19.65
2023-10-31T21:41:08.514Z,18.50
2023-10-31T21:43:35.836Z,19.85
2023-10-31T21:46:02.616Z,20.65
2023-10-31T21:48:29.328Z,21.30
2023-10-31T21:50:58.686Z,19.92
2023-10-31T21:53:26.616Z,20.83
2023-10-31T21:55:53.295Z,22.25
2023-10-31T21:58:19.893Z,23.05
2023-10-31T22:00:46.617Z,23.02
2023-10-31T22:03:13.582Z,21.05
2023-10-31T22:05:40.322Z,21.13
2023-10-31T22:08:06.972Z,20.80
2023-10-31T22:10:33.787Z,23.75
2023-10-31T22:13:00.461Z,23.98
2023-10-31T22:15:27.162Z,21.02
2023-10-31T22:17:53.844Z,22.63
2023-10-31T22:20:20.685Z,23.83
2023-10-31T22:22:47.397Z,24.13
2023-10-31T22:25:14.160Z,23.95
2023-10-31T22:27:40.715Z,24.80
2023-10-31T22:30:10.936Z,22.85
2023-10-31T22:32:37.914Z,23.20
2023-10-31T22:35:05.005Z,23.17
2023-10-31T22:37:32.770Z,22.88
2023-10-31T22:39:59.340Z,22.17
2023-10-31T22:42:26.094Z,16.25
2023-10-31T22:44:52.729Z,14.82
2023-10-31T22:47:19.400Z,14.20
2023-10-31T22:49:45.980Z,14.85
2023-10-31T22:52:12.688Z,16.05
2023-10-31T22:54:39.306Z,15.27
2023-10-31T22:57:05.920Z,14.90
2023-10-31T22:59:34.179Z,14.05
2023-10-31T23:02:00.853Z,14.82
2023-10-31T23:04:29.244Z,14.05
2023-10-31T23:06:56.100Z,13.20
2023-10-31T23:09:23.333Z,14.25
2023-10-31T23:11:49.913Z,15.10
2023-10-31T23:14:17.335Z,13.27
2023-10-31T23:16:43.931Z,13.40
2023-10-31T23:19:10.627Z,12.98
2023-10-31T23:21:37.382Z,12.38
2023-10-31T23:24:04.591Z,12.80
2023-10-31T23:26:31.271Z,12.95
2023-10-31T23:28:59.109Z,11.73
2023-10-31T23:31:25.813Z,12.40
2023-10-31T23:33:52.467Z,11.90
2023-10-31T23:36:19.126Z,11.80
2023-10-31T23:38:45.730Z,12.27
2023-10-31T23:41:12.357Z,10.65
2023-10-31T23:43:38.971Z,11.10
2023-10-31T23:46:05.607Z,11.75
2023-10-31T23:48:32.359Z,10.48
2023-10-31T23:50:58.923Z,11.02
2023-10-31T23:53:25.544Z,11.43
2023-10-31T23:55:52.181Z,11.23
2023-10-31T23:58:18.746Z,12.02
